sensor_id;sensor_type;location;lat;lon;timestamp;temperature;humidity
37530;DHT22;23374;52.758;6.872;2022-10-22T00:00:13;13.80;99.90
37530;DHT22;23374;52.758;6.872;2022-10-22T00:02:34;13.80;99.90
37530;DHT22;23374;52.758;6.872;2022-10-22T00:04:55;13.70;99.90
37530;DHT22;23374;52.758;6.872;2022-10-22T00:07:17;13.70;99.90
37530;DHT22;23374;52.758;6.872;2022-10-22T00:09:37;13.60;99.90
37530;DHT22;23374;52.758;6.872;2022-10-22T00:11:58;13.60;99.90
37530;DHT22;23374;52.758;6.872;2022-10-22T00:14:18;13.50;99.90
37530;DHT22;23374;52.758;6.872;2022-10-22T00:16:39;13.50;99.90
37530;DHT22;23374;52.758;6.872;2022-10-22T00:18:59;13.40;99.90
37530;DHT22;23374;52.758;6.872;2022-10-22T00:21:19;13.40;99.90
37530;DHT22;23374;52.758;6.872;2022-10-22T00:23:41;13.30;99.90
37530;DHT22;23374;52.758;6.872;2022-10-22T00:26:01;13.30;99.90
37530;DHT22;23374;52.758;6.872;2022-10-22T00:28:22;13.30;99.90
37530;DHT22;23374;52.758;6.872;2022-10-22T00:30:43;13.20;99.90
37530;DHT22;23374;52.758;6.872;2022-10-22T00:33:03;13.20;99.90
37530;DHT22;23374;52.758;6.872;2022-10-22T00:35:23;13.20;99.90
37530;DHT22;23374;52.758;6.872;2022-10-22T00:37:44;13.20;99.90
37530;DHT22;23374;52.758;6.872;2022-10-22T00:40:06;13.10;99.90
37530;DHT22;23374;52.758;6.872;2022-10-22T00:42:27;13.20;99.90
37530;DHT22;23374;52.758;6.872;2022-10-22T00:51:39;13.10;99.90
37530;DHT22;23374;52.758;6.872;2022-10-22T00:54:07;13.00;99.90
37530;DHT22;23374;52.758;6.872;2022-10-22T00:56:28;13.00;99.90
37530;DHT22;23374;52.758;6.872;2022-10-22T00:58:55;13.00;99.90
37530;DHT22;23374;52.758;6.872;2022-10-22T01:01:26;13.00;99.90
37530;DHT22;23374;52.758;6.872;2022-10-22T01:03:48;13.00;99.90
37530;DHT22;23374;52.758;6.872;2022-10-22T01:06:13;13.00;99.90
37530;DHT22;23374;52.758;6.872;2022-10-22T01:10:44;13.00;99.90
37530;DHT22;23374;52.758;6.872;2022-10-22T01:13:28;12.90;99.90
37530;DHT22;23374;52.758;6.872;2022-10-22T01:16:11;12.90;99.90
37530;DHT22;23374;52.758;6.872;2022-10-22T01:21:44;12.80;99.90
37530;DHT22;23374;52.758;6.872;2022-10-22T01:30:17;12.80;99.90
37530;DHT22;23374;52.758;6.872;2022-10-22T01:32:51;12.70;99.90
37530;DHT22;23374;52.758;6.872;2022-10-22T01:35:49;12.70;99.90
37530;DHT22;23374;52.758;6.872;2022-10-22T01:38:17;12.70;99.90
37530;DHT22;23374;52.758;6.872;2022-10-22T01:40:38;12.70;99.90
37530;DHT22;23374;52.758;6.872;2022-10-22T01:43:02;12.70;99.90
37530;DHT22;23374;52.758;6.872;2022-10-22T01:45:23;12.70;99.90
37530;DHT22;23374;52.758;6.872;2022-10-22T01:50:24;12.70;99.90
37530;DHT22;23374;52.758;6.872;2022-10-22T01:53:40;12.60;99.90
37530;DHT22;23374;52.758;6.872;2022-10-22T01:59:14;12.60;99.90
37530;DHT22;23374;52.758;6.872;2022-10-22T02:06:00;12.70;99.90
37530;DHT22;23374;52.758;6.872;2022-10-22T02:08:28;12.70;99.90
37530;DHT22;23374;52.758;6.872;2022-10-22T02:10:50;12.70;99.90
37530;DHT22;23374;52.758;6.872;2022-10-22T02:13:22;12.70;99.90
37530;DHT22;23374;52.758;6.872;2022-10-22T02:15:45;12.70;99.90
37530;DHT22;23374;52.758;6.872;2022-10-22T02:18:08;12.70;99.90
37530;DHT22;23374;52.758;6.872;2022-10-22T02:20:32;12.70;99.90
37530;DHT22;23374;52.758;6.872;2022-10-22T02:22:55;12.70;99.90
37530;DHT22;23374;52.758;6.872;2022-10-22T02:25:16;12.60;99.90
37530;DHT22;23374;52.758;6.872;2022-10-22T02:28:28;12.70;99.90
37530;DHT22;23374;52.758;6.872;2022-10-22T02:31:09;12.70;99.90
37530;DHT22;23374;52.758;6.872;2022-10-22T02:33:37;12.80;99.90
37530;DHT22;23374;52.758;6.872;2022-10-22T02:36:02;12.80;99.90
37530;DHT22;23374;52.758;6.872;2022-10-22T02:38:24;12.80;99.90
37530;DHT22;23374;52.758;6.872;2022-10-22T02:40:46;12.80;99.90
37530;DHT22;23374;52.758;6.872;2022-10-22T02:43:06;12.80;99.90
37530;DHT22;23374;52.758;6.872;2022-10-22T02:45:26;12.90;99.90
37530;DHT22;23374;52.758;6.872;2022-10-22T02:47:47;12.80;99.90
37530;DHT22;23374;52.758;6.872;2022-10-22T02:50:08;12.90;99.90
37530;DHT22;23374;52.758;6.872;2022-10-22T02:52:28;12.80;99.90
37530;DHT22;23374;52.758;6.872;2022-10-22T02:54:48;12.80;99.90
37530;DHT22;23374;52.758;6.872;2022-10-22T02:57:09;12.80;99.90
37530;DHT22;23374;52.758;6.872;2022-10-22T02:59:29;12.80;99.90
37530;DHT22;23374;52.758;6.872;2022-10-22T03:01:50;12.80;99.90
37530;DHT22;23374;52.758;6.872;2022-10-22T03:04:10;12.80;99.90
37530;DHT22;23374;52.758;6.872;2022-10-22T03:06:31;12.80;99.90
37530;DHT22;23374;52.758;6.872;2022-10-22T03:08:51;12.80;99.90
37530;DHT22;23374;52.758;6.872;2022-10-22T03:11:12;12.80;99.90
37530;DHT22;23374;52.758;6.872;2022-10-22T03:13:32;12.80;99.90
37530;DHT22;23374;52.758;6.872;2022-10-22T03:15:52;12.80;99.90
37530;DHT22;23374;52.758;6.872;2022-10-22T03:18:12;12.80;99.90
37530;DHT22;23374;52.758;6.872;2022-10-22T03:20:32;12.80;99.90
37530;DHT22;23374;52.758;6.872;2022-10-22T03:22:52;12.80;99.90
37530;DHT22;23374;52.758;6.872;2022-10-22T03:25:19;12.80;99.90
37530;DHT22;23374;52.758;6.872;2022-10-22T03:27:41;12.70;99.90
37530;DHT22;23374;52.758;6.872;2022-10-22T03:30:04;12.70;99.90
37530;DHT22;23374;52.758;6.872;2022-10-22T03:32:25;12.70;99.90
37530;DHT22;23374;52.758;6.872;2022-10-22T03:34:46;12.70;99.90
37530;DHT22;23374;52.758;6.872;2022-10-22T03:37:06;12.70;99.90
37530;DHT22;23374;52.758;6.872;2022-10-22T03:39:29;12.80;99.90
37530;DHT22;23374;52.758;6.872;2022-10-22T03:41:51;12.80;99.90
37530;DHT22;23374;52.758;6.872;2022-10-22T03:44:12;12.80;99.90
37530;DHT22;23374;52.758;6.872;2022-10-22T03:46:33;12.70;99.90
37530;DHT22;23374;52.758;6.872;2022-10-22T03:48:53;12.70;99.90
37530;DHT22;23374;52.758;6.872;2022-10-22T03:51:14;12.70;99.90
37530;DHT22;23374;52.758;6.872;2022-10-22T03:53:34;12.70;99.90
37530;DHT22;23374;52.758;6.872;2022-10-22T03:55:54;12.70;99.90
37530;DHT22;23374;52.758;6.872;2022-10-22T03:58:14;12.70;99.90
37530;DHT22;23374;52.758;6.872;2022-10-22T04:00:35;12.70;99.90
37530;DHT22;23374;52.758;6.872;2022-10-22T04:02:55;12.70;99.90
37530;DHT22;23374;52.758;6.872;2022-10-22T04:05:17;12.70;99.90
37530;DHT22;23374;52.758;6.872;2022-10-22T04:07:37;12.60;99.90
37530;DHT22;23374;52.758;6.872;2022-10-22T04:09:57;12.60;99.90
37530;DHT22;23374;52.758;6.872;2022-10-22T04:12:17;12.60;99.90
37530;DHT22;23374;52.758;6.872;2022-10-22T04:14:37;12.60;99.90
37530;DHT22;23374;52.758;6.872;2022-10-22T04:16:57;12.60;99.90
37530;DHT22;23374;52.758;6.872;2022-10-22T04:19:18;12.60;99.90
37530;DHT22;23374;52.758;6.872;2022-10-22T04:21:38;12.60;99.90
37530;DHT22;23374;52.758;6.872;2022-10-22T04:23:59;12.60;99.90
37530;DHT22;23374;52.758;6.872;2022-10-22T04:26:19;12.60;99.90
37530;DHT22;23374;52.758;6.872;2022-10-22T04:28:40;12.60;99.90
37530;DHT22;23374;52.758;6.872;2022-10-22T04:31:10;12.50;99.90
37530;DHT22;23374;52.758;6.872;2022-10-22T04:33:31;12.50;99.90
37530;DHT22;23374;52.758;6.872;2022-10-22T04:35:51;12.40;99.90
37530;DHT22;23374;52.758;6.872;2022-10-22T04:38:11;12.30;99.90
37530;DHT22;23374;52.758;6.872;2022-10-22T04:40:31;12.30;99.90
37530;DHT22;23374;52.758;6.872;2022-10-22T04:42:51;12.20;99.90
37530;DHT22;23374;52.758;6.872;2022-10-22T04:45:11;12.20;99.90
37530;DHT22;23374;52.758;6.872;2022-10-22T04:47:32;12.20;99.90
37530;DHT22;23374;52.758;6.872;2022-10-22T04:49:52;12.10;99.90
37530;DHT22;23374;52.758;6.872;2022-10-22T04:52:12;12.00;99.90
37530;DHT22;23374;52.758;6.872;2022-10-22T04:54:33;12.10;99.90
37530;DHT22;23374;52.758;6.872;2022-10-22T04:56:53;12.00;99.90
37530;DHT22;23374;52.758;6.872;2022-10-22T04:59:13;12.00;99.90
37530;DHT22;23374;52.758;6.872;2022-10-22T05:01:37;11.90;99.90
37530;DHT22;23374;52.758;6.872;2022-10-22T05:04:00;11.90;99.90
37530;DHT22;23374;52.758;6.872;2022-10-22T05:06:22;11.90;99.90
37530;DHT22;23374;52.758;6.872;2022-10-22T05:08:43;11.90;99.90
37530;DHT22;23374;52.758;6.872;2022-10-22T05:13:41;11.90;99.90
37530;DHT22;23374;52.758;6.872;2022-10-22T05:16:01;11.80;99.90
37530;DHT22;23374;52.758;6.872;2022-10-22T05:18:21;11.80;99.90
37530;DHT22;23374;52.758;6.872;2022-10-22T05:20:42;11.80;99.90
37530;DHT22;23374;52.758;6.872;2022-10-22T05:23:02;11.70;99.90
37530;DHT22;23374;52.758;6.872;2022-10-22T05:25:22;11.70;99.90
37530;DHT22;23374;52.758;6.872;2022-10-22T05:27:42;11.80;99.90
37530;DHT22;23374;52.758;6.872;2022-10-22T05:30:03;11.80;99.90
37530;DHT22;23374;52.758;6.872;2022-10-22T05:32:23;11.80;99.90
37530;DHT22;23374;52.758;6.872;2022-10-22T05:34:44;11.80;99.90
37530;DHT22;23374;52.758;6.872;2022-10-22T05:37:04;11.80;99.90
37530;DHT22;23374;52.758;6.872;2022-10-22T05:39:24;11.80;99.90
37530;DHT22;23374;52.758;6.872;2022-10-22T05:41:45;11.80;99.90
37530;DHT22;23374;52.758;6.872;2022-10-22T05:44:05;11.80;99.90
37530;DHT22;23374;52.758;6.872;2022-10-22T05:46:28;11.70;99.90
37530;DHT22;23374;52.758;6.872;2022-10-22T05:48:57;11.70;99.90
37530;DHT22;23374;52.758;6.872;2022-10-22T05:51:18;11.70;99.90
37530;DHT22;23374;52.758;6.872;2022-10-22T05:53:41;11.70;99.90
37530;DHT22;23374;52.758;6.872;2022-10-22T05:56:05;11.70;99.90
37530;DHT22;23374;52.758;6.872;2022-10-22T05:58:26;11.70;99.90
37530;DHT22;23374;52.758;6.872;2022-10-22T06:00:46;11.70;99.90
37530;DHT22;23374;52.758;6.872;2022-10-22T06:03:06;11.70;99.90
37530;DHT22;23374;52.758;6.872;2022-10-22T06:05:27;11.70;99.90
37530;DHT22;23374;52.758;6.872;2022-10-22T06:07:47;11.80;99.90
37530;DHT22;23374;52.758;6.872;2022-10-22T06:10:18;11.80;99.90
37530;DHT22;23374;52.758;6.872;2022-10-22T06:12:39;11.80;99.90
37530;DHT22;23374;52.758;6.872;2022-10-22T06:14:59;11.80;99.90
37530;DHT22;23374;52.758;6.872;2022-10-22T06:17:19;11.80;99.90
37530;DHT22;23374;52.758;6.872;2022-10-22T06:19:39;11.80;99.90
37530;DHT22;23374;52.758;6.872;2022-10-22T06:22:00;11.80;99.90
37530;DHT22;23374;52.758;6.872;2022-10-22T06:24:21;11.80;99.90
37530;DHT22;23374;52.758;6.872;2022-10-22T06:26:41;11.80;99.90
37530;DHT22;23374;52.758;6.872;2022-10-22T06:29:02;11.80;99.90
37530;DHT22;23374;52.758;6.872;2022-10-22T06:31:25;11.90;99.90
37530;DHT22;23374;52.758;6.872;2022-10-22T06:33:45;11.90;99.90
37530;DHT22;23374;52.758;6.872;2022-10-22T06:36:11;11.90;99.90
37530;DHT22;23374;52.758;6.872;2022-10-22T06:38:32;11.90;99.90
37530;DHT22;23374;52.758;6.872;2022-10-22T06:40:52;11.90;99.90
37530;DHT22;23374;52.758;6.872;2022-10-22T06:43:13;12.00;99.90
37530;DHT22;23374;52.758;6.872;2022-10-22T06:45:33;12.00;99.90
37530;DHT22;23374;52.758;6.872;2022-10-22T06:47:53;12.10;99.90
37530;DHT22;23374;52.758;6.872;2022-10-22T06:50:14;12.30;99.90
37530;DHT22;23374;52.758;6.872;2022-10-22T06:52:35;12.40;99.90
37530;DHT22;23374;52.758;6.872;2022-10-22T06:54:55;12.50;99.90
37530;DHT22;23374;52.758;6.872;2022-10-22T06:57:15;12.60;99.90
37530;DHT22;23374;52.758;6.872;2022-10-22T06:59:36;12.70;99.90
37530;DHT22;23374;52.758;6.872;2022-10-22T07:01:56;12.80;99.90
37530;DHT22;23374;52.758;6.872;2022-10-22T07:04:16;12.90;99.90
37530;DHT22;23374;52.758;6.872;2022-10-22T07:06:36;12.90;99.90
37530;DHT22;23374;52.758;6.872;2022-10-22T07:08:58;13.00;99.90
37530;DHT22;23374;52.758;6.872;2022-10-22T07:11:22;13.10;99.90
37530;DHT22;23374;52.758;6.872;2022-10-22T07:13:44;13.20;99.90
37530;DHT22;23374;52.758;6.872;2022-10-22T07:16:06;13.20;99.90
37530;DHT22;23374;52.758;6.872;2022-10-22T07:18:27;13.30;99.90
37530;DHT22;23374;52.758;6.872;2022-10-22T07:20:48;13.40;99.90
37530;DHT22;23374;52.758;6.872;2022-10-22T07:23:08;13.50;99.90
37530;DHT22;23374;52.758;6.872;2022-10-22T07:25:28;13.60;99.90
37530;DHT22;23374;52.758;6.872;2022-10-22T07:27:48;13.60;99.90
37530;DHT22;23374;52.758;6.872;2022-10-22T07:30:09;13.70;99.90
37530;DHT22;23374;52.758;6.872;2022-10-22T07:32:30;13.70;99.90
37530;DHT22;23374;52.758;6.872;2022-10-22T07:34:50;13.80;99.90
37530;DHT22;23374;52.758;6.872;2022-10-22T07:37:10;13.80;99.90
37530;DHT22;23374;52.758;6.872;2022-10-22T07:39:30;13.90;99.90
37530;DHT22;23374;52.758;6.872;2022-10-22T07:41:51;14.00;99.90
37530;DHT22;23374;52.758;6.872;2022-10-22T07:44:12;14.10;99.90
37530;DHT22;23374;52.758;6.872;2022-10-22T07:46:32;14.10;99.90
37530;DHT22;23374;52.758;6.872;2022-10-22T07:48:54;14.20;99.90
37530;DHT22;23374;52.758;6.872;2022-10-22T07:51:14;14.20;99.90
37530;DHT22;23374;52.758;6.872;2022-10-22T07:53:36;14.30;99.90
37530;DHT22;23374;52.758;6.872;2022-10-22T07:55:56;14.30;99.90
37530;DHT22;23374;52.758;6.872;2022-10-22T07:58:20;14.40;99.90
37530;DHT22;23374;52.758;6.872;2022-10-22T08:00:41;14.40;99.90
37530;DHT22;23374;52.758;6.872;2022-10-22T08:03:01;14.40;99.90
37530;DHT22;23374;52.758;6.872;2022-10-22T08:05:21;14.50;99.90
37530;DHT22;23374;52.758;6.872;2022-10-22T08:07:42;14.50;99.90
37530;DHT22;23374;52.758;6.872;2022-10-22T08:10:02;14.50;99.90
37530;DHT22;23374;52.758;6.872;2022-10-22T08:12:23;14.50;99.90
37530;DHT22;23374;52.758;6.872;2022-10-22T08:14:43;14.50;99.90
37530;DHT22;23374;52.758;6.872;2022-10-22T08:17:03;14.50;99.90
37530;DHT22;23374;52.758;6.872;2022-10-22T08:19:23;14.50;99.90
37530;DHT22;23374;52.758;6.872;2022-10-22T08:21:44;14.40;99.90
37530;DHT22;23374;52.758;6.872;2022-10-22T08:24:06;14.40;99.90
37530;DHT22;23374;52.758;6.872;2022-10-22T08:26:26;14.40;99.90
37530;DHT22;23374;52.758;6.872;2022-10-22T08:28:46;14.40;99.90
37530;DHT22;23374;52.758;6.872;2022-10-22T08:31:07;14.40;99.90
37530;DHT22;23374;52.758;6.872;2022-10-22T08:33:28;14.40;99.90
37530;DHT22;23374;52.758;6.872;2022-10-22T08:35:50;14.40;99.90
37530;DHT22;23374;52.758;6.872;2022-10-22T08:38:10;14.50;99.90
37530;DHT22;23374;52.758;6.872;2022-10-22T08:40:38;14.50;99.90
37530;DHT22;23374;52.758;6.872;2022-10-22T08:43:18;14.50;99.90
37530;DHT22;23374;52.758;6.872;2022-10-22T08:46:22;14.50;99.90
37530;DHT22;23374;52.758;6.872;2022-10-22T08:48:56;14.50;99.90
37530;DHT22;23374;52.758;6.872;2022-10-22T08:51:40;14.50;99.90
37530;DHT22;23374;52.758;6.872;2022-10-22T09:04:37;14.60;99.90
37530;DHT22;23374;52.758;6.872;2022-10-22T09:07:00;14.70;99.90
37530;DHT22;23374;52.758;6.872;2022-10-22T09:09:24;14.80;99.90
37530;DHT22;23374;52.758;6.872;2022-10-22T09:11:51;14.80;99.90
37530;DHT22;23374;52.758;6.872;2022-10-22T09:14:17;14.90;99.90
37530;DHT22;23374;52.758;6.872;2022-10-22T09:25:30;15.10;99.90
37530;DHT22;23374;52.758;6.872;2022-10-22T09:27:53;15.10;99.90
37530;DHT22;23374;52.758;6.872;2022-10-22T09:30:22;15.20;99.90
37530;DHT22;23374;52.758;6.872;2022-10-22T09:32:42;15.20;99.90
37530;DHT22;23374;52.758;6.872;2022-10-22T09:35:04;15.30;99.90
37530;DHT22;23374;52.758;6.872;2022-10-22T09:37:29;15.40;99.90
37530;DHT22;23374;52.758;6.872;2022-10-22T09:39:53;15.40;99.90
37530;DHT22;23374;52.758;6.872;2022-10-22T09:42:16;15.50;99.90
37530;DHT22;23374;52.758;6.872;2022-10-22T09:44:37;15.50;99.90
37530;DHT22;23374;52.758;6.872;2022-10-22T09:46:57;15.60;99.90
37530;DHT22;23374;52.758;6.872;2022-10-22T09:49:23;15.60;99.90
37530;DHT22;23374;52.758;6.872;2022-10-22T09:52:26;15.60;99.90
37530;DHT22;23374;52.758;6.872;2022-10-22T09:54:51;15.70;99.90
37530;DHT22;23374;52.758;6.872;2022-10-22T09:57:20;15.70;99.90
37530;DHT22;23374;52.758;6.872;2022-10-22T09:59:43;15.70;99.90
37530;DHT22;23374;52.758;6.872;2022-10-22T10:02:21;15.70;99.90
37530;DHT22;23374;52.758;6.872;2022-10-22T10:04:51;15.80;99.90
37530;DHT22;23374;52.758;6.872;2022-10-22T10:07:21;15.80;99.90
37530;DHT22;23374;52.758;6.872;2022-10-22T10:09:42;15.80;99.90
37530;DHT22;23374;52.758;6.872;2022-10-22T10:12:31;15.80;99.90
37530;DHT22;23374;52.758;6.872;2022-10-22T10:16:41;15.80;99.90
37530;DHT22;23374;52.758;6.872;2022-10-22T10:24:25;15.80;99.90
37530;DHT22;23374;52.758;6.872;2022-10-22T10:27:01;15.70;99.90
37530;DHT22;23374;52.758;6.872;2022-10-22T10:39:11;15.70;99.90
37530;DHT22;23374;52.758;6.872;2022-10-22T10:43:43;15.70;99.90
37530;DHT22;23374;52.758;6.872;2022-10-22T10:53:37;15.80;99.90
37530;DHT22;23374;52.758;6.872;2022-10-22T10:59:13;15.80;99.90
37530;DHT22;23374;52.758;6.872;2022-10-22T11:04:58;15.90;99.90
37530;DHT22;23374;52.758;6.872;2022-10-22T11:07:39;15.90;99.90
37530;DHT22;23374;52.758;6.872;2022-10-22T11:10:31;16.00;99.90
37530;DHT22;23374;52.758;6.872;2022-10-22T11:13:52;16.00;99.90
37530;DHT22;23374;52.758;6.872;2022-10-22T11:23:08;16.00;99.90
37530;DHT22;23374;52.758;6.872;2022-10-22T11:25:35;15.80;99.90
37530;DHT22;23374;52.758;6.872;2022-10-22T11:28:20;15.70;99.90
37530;DHT22;23374;52.758;6.872;2022-10-22T11:30:44;15.70;99.90
37530;DHT22;23374;52.758;6.872;2022-10-22T11:33:14;15.70;99.90
37530;DHT22;23374;52.758;6.872;2022-10-22T11:35:40;15.70;99.90
37530;DHT22;23374;52.758;6.872;2022-10-22T11:38:04;15.70;99.90
37530;DHT22;23374;52.758;6.872;2022-10-22T11:40:36;15.80;99.90
37530;DHT22;23374;52.758;6.872;2022-10-22T11:43:06;15.80;99.90
37530;DHT22;23374;52.758;6.872;2022-10-22T11:45:37;15.90;99.90
37530;DHT22;23374;52.758;6.872;2022-10-22T11:51:42;15.90;99.90
37530;DHT22;23374;52.758;6.872;2022-10-22T11:54:38;16.00;99.90
37530;DHT22;23374;52.758;6.872;2022-10-22T11:58:54;16.00;99.90
37530;DHT22;23374;52.758;6.872;2022-10-22T12:01:39;16.00;99.90
37530;DHT22;23374;52.758;6.872;2022-10-22T12:04:21;16.00;99.90
37530;DHT22;23374;52.758;6.872;2022-10-22T12:07:00;16.00;99.90
37530;DHT22;23374;52.758;6.872;2022-10-22T12:09:23;16.00;99.90
37530;DHT22;23374;52.758;6.872;2022-10-22T12:11:48;16.10;99.90
37530;DHT22;23374;52.758;6.872;2022-10-22T12:14:49;16.10;99.90
37530;DHT22;23374;52.758;6.872;2022-10-22T12:17:15;16.20;99.90
37530;DHT22;23374;52.758;6.872;2022-10-22T12:19:49;16.30;99.90
37530;DHT22;23374;52.758;6.872;2022-10-22T12:22:23;16.30;99.90
37530;DHT22;23374;52.758;6.872;2022-10-22T12:24:54;16.40;99.90
37530;DHT22;23374;52.758;6.872;2022-10-22T12:27:36;16.40;99.90
37530;DHT22;23374;52.758;6.872;2022-10-22T12:29:59;16.60;99.90
37530;DHT22;23374;52.758;6.872;2022-10-22T12:32:19;16.70;99.90
37530;DHT22;23374;52.758;6.872;2022-10-22T12:34:48;16.70;99.90
37530;DHT22;23374;52.758;6.872;2022-10-22T12:37:10;16.70;99.90
37530;DHT22;23374;52.758;6.872;2022-10-22T12:39:32;16.80;99.90
37530;DHT22;23374;52.758;6.872;2022-10-22T12:41:55;16.80;99.90
37530;DHT22;23374;52.758;6.872;2022-10-22T12:44:17;16.90;99.90
37530;DHT22;23374;52.758;6.872;2022-10-22T12:46:37;16.90;99.90
37530;DHT22;23374;52.758;6.872;2022-10-22T12:49:09;16.90;99.90
37530;DHT22;23374;52.758;6.872;2022-10-22T12:51:32;16.90;99.90
37530;DHT22;23374;52.758;6.872;2022-10-22T12:53:55;16.90;99.90
37530;DHT22;23374;52.758;6.872;2022-10-22T12:56:25;16.90;99.90
37530;DHT22;23374;52.758;6.872;2022-10-22T12:59:00;16.90;99.90
37530;DHT22;23374;52.758;6.872;2022-10-22T13:01:23;16.90;99.90
37530;DHT22;23374;52.758;6.872;2022-10-22T13:03:50;16.90;99.90
37530;DHT22;23374;52.758;6.872;2022-10-22T13:06:24;16.90;99.90
37530;DHT22;23374;52.758;6.872;2022-10-22T13:11:22;16.90;99.90
37530;DHT22;23374;52.758;6.872;2022-10-22T13:13:43;16.90;99.90
37530;DHT22;23374;52.758;6.872;2022-10-22T13:16:24;16.90;99.90
37530;DHT22;23374;52.758;6.872;2022-10-22T13:18:47;16.90;99.90
37530;DHT22;23374;52.758;6.872;2022-10-22T13:23:01;16.90;99.90
37530;DHT22;23374;52.758;6.872;2022-10-22T13:25:34;16.90;99.90
37530;DHT22;23374;52.758;6.872;2022-10-22T13:28:00;16.90;99.90
37530;DHT22;23374;52.758;6.872;2022-10-22T13:30:33;16.90;99.90
37530;DHT22;23374;52.758;6.872;2022-10-22T13:33:00;16.90;99.90
37530;DHT22;23374;52.758;6.872;2022-10-22T13:35:29;17.00;99.90
37530;DHT22;23374;52.758;6.872;2022-10-22T13:37:51;16.90;99.90
37530;DHT22;23374;52.758;6.872;2022-10-22T13:40:13;16.90;99.90
37530;DHT22;23374;52.758;6.872;2022-10-22T13:42:34;16.90;99.90
37530;DHT22;23374;52.758;6.872;2022-10-22T13:44:54;16.90;99.90
37530;DHT22;23374;52.758;6.872;2022-10-22T13:47:29;16.90;99.90
37530;DHT22;23374;52.758;6.872;2022-10-22T13:49:49;17.00;99.90
37530;DHT22;23374;52.758;6.872;2022-10-22T13:52:22;17.00;99.90
37530;DHT22;23374;52.758;6.872;2022-10-22T13:54:44;17.00;99.90
37530;DHT22;23374;52.758;6.872;2022-10-22T13:57:08;17.10;99.90
37530;DHT22;23374;52.758;6.872;2022-10-22T13:59:29;17.10;99.90
37530;DHT22;23374;52.758;6.872;2022-10-22T14:01:50;17.20;99.90
37530;DHT22;23374;52.758;6.872;2022-10-22T14:04:12;17.20;99.90
37530;DHT22;23374;52.758;6.872;2022-10-22T14:06:34;17.20;99.90
37530;DHT22;23374;52.758;6.872;2022-10-22T14:09:04;17.30;99.90
37530;DHT22;23374;52.758;6.872;2022-10-22T14:11:27;17.30;99.90
37530;DHT22;23374;52.758;6.872;2022-10-22T14:13:49;17.40;99.90
37530;DHT22;23374;52.758;6.872;2022-10-22T14:16:17;17.50;99.90
37530;DHT22;23374;52.758;6.872;2022-10-22T14:18:38;17.60;99.90
37530;DHT22;23374;52.758;6.872;2022-10-22T14:21:02;17.70;99.90
37530;DHT22;23374;52.758;6.872;2022-10-22T14:23:29;17.70;99.90
37530;DHT22;23374;52.758;6.872;2022-10-22T14:25:50;17.70;99.90
37530;DHT22;23374;52.758;6.872;2022-10-22T14:28:11;17.60;99.90
37530;DHT22;23374;52.758;6.872;2022-10-22T14:30:31;17.60;99.90
37530;DHT22;23374;52.758;6.872;2022-10-22T14:32:52;17.60;99.90
37530;DHT22;23374;52.758;6.872;2022-10-22T14:35:15;17.70;99.90
37530;DHT22;23374;52.758;6.872;2022-10-22T14:37:35;17.80;99.90
37530;DHT22;23374;52.758;6.872;2022-10-22T14:39:55;17.80;99.90
37530;DHT22;23374;52.758;6.872;2022-10-22T14:42:20;17.80;99.90
37530;DHT22;23374;52.758;6.872;2022-10-22T14:44:40;17.80;94.10
37530;DHT22;23374;52.758;6.872;2022-10-22T14:47:00;17.80;99.90
37530;DHT22;23374;52.758;6.872;2022-10-22T14:49:21;17.80;99.90
37530;DHT22;23374;52.758;6.872;2022-10-22T14:51:41;17.80;99.90
37530;DHT22;23374;52.758;6.872;2022-10-22T14:54:02;17.80;99.90
37530;DHT22;23374;52.758;6.872;2022-10-22T14:56:22;17.80;99.90
37530;DHT22;23374;52.758;6.872;2022-10-22T14:58:42;17.80;93.40
37530;DHT22;23374;52.758;6.872;2022-10-22T15:01:03;17.80;99.90
37530;DHT22;23374;52.758;6.872;2022-10-22T15:03:24;17.80;11.50
37530;DHT22;23374;52.758;6.872;2022-10-22T15:05:44;17.80;47.20
37530;DHT22;23374;52.758;6.872;2022-10-22T15:08:05;17.80;44.50
37530;DHT22;23374;52.758;6.872;2022-10-22T15:10:25;17.80;1.00
37530;DHT22;23374;52.758;6.872;2022-10-22T15:12:46;17.80;6.70
37530;DHT22;23374;52.758;6.872;2022-10-22T15:15:07;17.80;1.00
37530;DHT22;23374;52.758;6.872;2022-10-22T15:17:28;17.80;1.00
37530;DHT22;23374;52.758;6.872;2022-10-22T15:19:48;17.70;8.40
37530;DHT22;23374;52.758;6.872;2022-10-22T15:22:10;17.70;1.00
37530;DHT22;23374;52.758;6.872;2022-10-22T15:24:31;17.70;9.60
37530;DHT22;23374;52.758;6.872;2022-10-22T15:26:51;17.60;27.80
37530;DHT22;23374;52.758;6.872;2022-10-22T15:29:12;17.50;22.90
37530;DHT22;23374;52.758;6.872;2022-10-22T15:31:54;17.40;26.90
37530;DHT22;23374;52.758;6.872;2022-10-22T15:34:52;17.30;1.00
37530;DHT22;23374;52.758;6.872;2022-10-22T15:37:13;17.20;1.00
37530;DHT22;23374;52.758;6.872;2022-10-22T15:39:34;17.10;51.20
37530;DHT22;23374;52.758;6.872;2022-10-22T15:41:55;17.00;56.00
37530;DHT22;23374;52.758;6.872;2022-10-22T15:44:29;17.00;47.60
37530;DHT22;23374;52.758;6.872;2022-10-22T15:46:50;16.90;42.80
37530;DHT22;23374;52.758;6.872;2022-10-22T15:49:12;16.80;95.10
37530;DHT22;23374;52.758;6.872;2022-10-22T15:51:32;16.70;93.90
37530;DHT22;23374;52.758;6.872;2022-10-22T15:53:56;16.70;99.90
37530;DHT22;23374;52.758;6.872;2022-10-22T15:56:16;16.60;99.90
37530;DHT22;23374;52.758;6.872;2022-10-22T15:58:36;16.50;99.90
37530;DHT22;23374;52.758;6.872;2022-10-22T16:01:07;16.40;99.90
37530;DHT22;23374;52.758;6.872;2022-10-22T16:03:28;16.30;99.90
37530;DHT22;23374;52.758;6.872;2022-10-22T16:05:51;16.30;99.90
37530;DHT22;23374;52.758;6.872;2022-10-22T16:08:16;16.30;99.90
37530;DHT22;23374;52.758;6.872;2022-10-22T16:10:36;16.20;99.90
37530;DHT22;23374;52.758;6.872;2022-10-22T16:12:56;16.10;99.90
37530;DHT22;23374;52.758;6.872;2022-10-22T16:15:17;16.10;99.90
37530;DHT22;23374;52.758;6.872;2022-10-22T16:17:37;16.00;99.90
37530;DHT22;23374;52.758;6.872;2022-10-22T16:19:57;15.90;99.90
37530;DHT22;23374;52.758;6.872;2022-10-22T16:22:17;15.90;99.90
37530;DHT22;23374;52.758;6.872;2022-10-22T16:24:37;15.80;99.90
37530;DHT22;23374;52.758;6.872;2022-10-22T16:27:00;15.80;99.90
37530;DHT22;23374;52.758;6.872;2022-10-22T16:29:20;15.70;99.90
37530;DHT22;23374;52.758;6.872;2022-10-22T16:31:41;15.70;99.90
37530;DHT22;23374;52.758;6.872;2022-10-22T16:34:02;15.70;99.90
37530;DHT22;23374;52.758;6.872;2022-10-22T16:36:23;15.60;99.90
37530;DHT22;23374;52.758;6.872;2022-10-22T16:38:45;15.60;99.90
37530;DHT22;23374;52.758;6.872;2022-10-22T16:41:14;15.50;99.90
37530;DHT22;23374;52.758;6.872;2022-10-22T16:43:35;15.50;99.90
37530;DHT22;23374;52.758;6.872;2022-10-22T16:45:56;15.40;99.90
37530;DHT22;23374;52.758;6.872;2022-10-22T16:48:17;15.40;99.90
37530;DHT22;23374;52.758;6.872;2022-10-22T16:50:38;15.30;99.90